createdAt,value
2022-08-03T00:00:26.668Z,68.62
2022-08-03T00:02:53.652Z,71.61
2022-08-03T00:05:20.486Z,72.65
2022-08-03T00:07:48.631Z,72.27
2022-08-03T00:10:17.337Z,72.38
2022-08-03T00:12:44.056Z,70.24
2022-08-03T00:15:15.254Z,68.67
2022-08-03T00:17:52.935Z,68.95
2022-08-03T00:20:21.963Z,69.22
2022-08-03T00:22:49.723Z,69.57
2022-08-03T00:25:16.566Z,70.44
2022-08-03T00:27:43.186Z,71.41
2022-08-03T00:30:10.629Z,71.10
2022-08-03T00:32:37.285Z,71.19
2022-08-03T00:35:09.923Z,71.62
2022-08-03T00:37:40.654Z,71.49
2022-08-03T00:40:15.867Z,72.07
2022-08-03T00:43:00.532Z,71.22
2022-08-03T00:45:30.029Z,70.91
2022-08-03T00:47:57.748Z,70.79
2022-08-03T00:50:26.635Z,71.02
2022-08-03T00:52:55.466Z,71.32
2022-08-03T00:55:23.100Z,71.12
2022-08-03T00:57:50.557Z,71.27
2022-08-03T01:00:21.064Z,71.66
2022-08-03T01:02:49.991Z,71.16
2022-08-03T01:05:17.507Z,71.19
2022-08-03T01:08:23.151Z,71.66
2022-08-03T01:11:27.168Z,71.79
2022-08-03T01:14:19.382Z,71.86
2022-08-03T01:17:30.334Z,71.41
2022-08-03T01:20:04.579Z,71.00
2022-08-03T01:23:08.936Z,71.03
2022-08-03T01:25:54.610Z,72.13
2022-08-03T01:28:39.326Z,72.54
2022-08-03T01:31:10.333Z,73.06
2022-08-03T01:33:55.778Z,72.46
2022-08-03T01:36:26.716Z,73.26
2022-08-03T01:39:00.910Z,73.38
2022-08-03T01:41:33.971Z,73.64
2022-08-03T01:44:29.942Z,76.06
2022-08-03T01:46:51.630Z,77.20
2022-08-03T01:49:18.503Z,79.23
2022-08-03T01:52:02.722Z,77.88
2022-08-03T01:54:34.210Z,79.27
2022-08-03T01:57:02.898Z,81.43
2022-08-03T01:59:32.493Z,81.85
2022-08-03T02:02:28.975Z,79.98
2022-08-03T02:04:49.161Z,78.84
2022-08-03T02:07:16.841Z,77.96
2022-08-03T02:09:46.979Z,77.35
2022-08-03T02:12:15.304Z,76.76
2022-08-03T02:14:44.468Z,75.78
2022-08-03T02:17:13.243Z,75.63
2022-08-03T02:19:41.183Z,75.34
2022-08-03T02:22:11.324Z,75.02
2022-08-03T02:24:38.580Z,75.75
2022-08-03T02:27:14.636Z,75.94
2022-08-03T02:29:46.668Z,75.49
2022-08-03T02:32:18.488Z,75.45
2022-08-03T02:34:49.020Z,75.73
2022-08-03T02:37:19.314Z,75.34
2022-08-03T02:39:48.027Z,74.54
2022-08-03T02:42:19.894Z,75.18
2022-08-03T02:44:48.986Z,75.11
2022-08-03T02:47:17.220Z,75.52
2022-08-03T02:49:50.941Z,75.81
2022-08-03T02:52:20.932Z,75.67
2022-08-03T02:54:51.221Z,75.36
2022-08-03T02:57:20.121Z,74.66
2022-08-03T02:59:47.783Z,74.70
2022-08-03T03:02:16.591Z,75.83
2022-08-03T03:05:53.401Z,76.15
2022-08-03T03:07:39.138Z,75.34
2022-08-03T03:10:21.876Z,75.55
2022-08-03T03:12:52.201Z,75.30
2022-08-03T03:15:19.062Z,74.75
2022-08-03T03:17:47.370Z,74.89
2022-08-03T03:20:15.862Z,74.80
2022-08-03T03:23:00.177Z,75.08
2022-08-03T03:25:30.664Z,75.34
2022-08-03T03:27:58.220Z,75.69
2022-08-03T03:30:26.246Z,83.08
2022-08-03T03:32:53.435Z,85.81
2022-08-03T03:35:20.463Z,84.70
2022-08-03T03:37:47.252Z,83.81
2022-08-03T03:40:14.511Z,82.68
2022-08-03T03:42:41.443Z,81.68
2022-08-03T03:45:09.041Z,78.61
2022-08-03T03:47:35.781Z,77.61
2022-08-03T03:50:04.771Z,78.13
2022-08-03T03:52:32.864Z,78.35
2022-08-03T03:55:01.263Z,76.68
2022-08-03T03:57:29.364Z,76.38
2022-08-03T03:59:56.443Z,76.78
2022-08-03T04:02:23.220Z,76.15
2022-08-03T04:05:08.466Z,75.58
2022-08-03T04:08:13.256Z,74.76
2022-08-03T04:11:00.517Z,73.46
2022-08-03T04:13:35.420Z,73.25
2022-08-03T04:16:03.422Z,76.64
2022-08-03T04:18:32.849Z,78.27
2022-08-03T04:21:03.708Z,77.70
2022-08-03T04:23:34.487Z,78.21
2022-08-03T04:26:03.394Z,76.20
2022-08-03T04:28:32.614Z,75.09
2022-08-03T04:31:01.672Z,75.04
2022-08-03T04:33:31.449Z,74.32
2022-08-03T04:36:03.403Z,72.53
2022-08-03T04:38:36.800Z,71.89
2022-08-03T04:41:04.343Z,72.20
2022-08-03T04:43:33.693Z,72.48
2022-08-03T04:46:01.660Z,78.85
2022-08-03T04:48:28.706Z,77.52
2022-08-03T04:50:55.464Z,75.10
2022-08-03T04:53:22.553Z,73.66
2022-08-03T04:55:49.994Z,72.33
2022-08-03T04:58:16.648Z,71.40
2022-08-03T05:00:43.447Z,71.87
2022-08-03T05:03:23.987Z,70.84
2022-08-03T05:06:01.652Z,69.50
2022-08-03T05:08:46.270Z,68.69
2022-08-03T05:11:15.407Z,68.12
2022-08-03T05:13:42.196Z,66.92
2022-08-03T05:16:09.025Z,66.47
2022-08-03T05:18:36.087Z,66.80
2022-08-03T05:21:02.772Z,65.98
2022-08-03T05:23:29.547Z,64.77
2022-08-03T05:25:56.311Z,63.07
2022-08-03T05:28:23.173Z,61.23
2022-08-03T05:30:49.786Z,60.07
2022-08-03T05:33:16.443Z,60.87
2022-08-03T05:36:00.784Z,60.90
2022-08-03T05:38:35.125Z,61.52
2022-08-03T05:41:23.237Z,63.14
2022-08-03T05:43:55.484Z,64.02
2022-08-03T05:46:23.225Z,64.09
2022-08-03T05:48:50.220Z,62.94
2022-08-03T05:51:17.135Z,62.30
2022-08-03T05:53:44.869Z,62.06
2022-08-03T05:56:14.666Z,61.82
2022-08-03T05:58:47.358Z,62.32
2022-08-03T06:01:16.191Z,61.33
2022-08-03T06:03:43.095Z,61.29
2022-08-03T06:06:09.799Z,60.66
2022-08-03T06:08:36.817Z,59.58
2022-08-03T06:11:04.833Z,58.55
2022-08-03T06:13:32.248Z,58.10
2022-08-03T06:15:58.999Z,57.81
2022-08-03T06:18:25.791Z,57.32
2022-08-03T06:20:53.021Z,57.25
2022-08-03T06:23:19.764Z,57.43
2022-08-03T06:25:47.222Z,57.61
2022-08-03T06:28:42.409Z,57.26
2022-08-03T06:31:01.997Z,57.80
2022-08-03T06:34:30.213Z,58.84
2022-08-03T06:36:15.734Z,60.37
2022-08-03T06:38:42.469Z,59.76
2022-08-03T06:41:09.179Z,59.59
2022-08-03T06:43:37.964Z,59.33
2022-08-03T06:46:24.531Z,59.99
2022-08-03T06:48:52.712Z,60.21
2022-08-03T06:51:19.409Z,59.86
2022-08-03T06:53:46.066Z,59.77
2022-08-03T06:56:12.745Z,59.53
2022-08-03T06:58:39.342Z,59.21
2022-08-03T07:01:06.016Z,60.08
2022-08-03T07:03:32.757Z,58.78
2022-08-03T07:06:00.007Z,57.70
2022-08-03T07:08:33.137Z,56.81
2022-08-03T07:11:00.752Z,56.16
2022-08-03T07:13:27.406Z,55.21
2022-08-03T07:15:56.140Z,54.87
2022-08-03T07:18:25.677Z,54.38
2022-08-03T07:20:56.923Z,53.99
2022-08-03T07:23:23.607Z,52.97
2022-08-03T07:25:51.013Z,52.15
2022-08-03T07:28:18.252Z,52.22
2022-08-03T07:30:44.927Z,50.82
2022-08-03T07:33:11.972Z,50.10
2022-08-03T07:35:38.972Z,49.49
2022-08-03T07:38:05.700Z,48.73
2022-08-03T07:40:32.453Z,49.33
2022-08-03T07:43:00.259Z,47.82
2022-08-03T07:45:27.066Z,47.33
2022-08-03T07:47:54.432Z,47.59
2022-08-03T07:50:22.357Z,45.91
2022-08-03T07:52:50.756Z,45.42
2022-08-03T07:55:22.962Z,44.73
2022-08-03T07:58:16.511Z,43.90
2022-08-03T08:00:46.159Z,44.43
2022-08-03T08:03:13.449Z,44.37
2022-08-03T08:05:40.248Z,43.45
2022-08-03T08:08:07.179Z,42.20
2022-08-03T08:10:34.258Z,42.40
2022-08-03T08:13:01.968Z,42.12
2022-08-03T08:15:28.827Z,43.04
2022-08-03T08:17:57.885Z,42.99
2022-08-03T08:20:31.387Z,43.42
2022-08-03T08:23:12.146Z,42.90
2022-08-03T08:25:52.318Z,42.98
2022-08-03T08:28:22.339Z,42.85
2022-08-03T08:30:59.190Z,42.18
2022-08-03T08:33:25.929Z,42.12
2022-08-03T08:35:56.756Z,42.30
2022-08-03T08:38:23.732Z,43.37
2022-08-03T08:40:50.873Z,42.66
2022-08-03T08:43:17.511Z,41.83
2022-08-03T08:45:45.135Z,41.27
2022-08-03T08:48:13.991Z,41.89
2022-08-03T08:50:41.016Z,42.20
2022-08-03T08:53:17.576Z,41.43
2022-08-03T08:55:59.732Z,40.69
2022-08-03T08:58:36.963Z,41.73
2022-08-03T09:01:04.760Z,40.84
2022-08-03T09:03:33.981Z,41.28
2022-08-03T09:06:01.422Z,42.17
2022-08-03T09:08:30.023Z,40.95
2022-08-03T09:10:56.735Z,41.04
2022-08-03T09:13:23.453Z,41.58
2022-08-03T09:16:12.992Z,41.86
2022-08-03T09:18:40.281Z,42.64
2022-08-03T09:21:35.255Z,43.15
2022-08-03T09:24:05.906Z,43.15
2022-08-03T09:26:38.072Z,42.90
2022-08-03T09:29:14.417Z,43.80
2022-08-03T09:31:46.958Z,44.35
2022-08-03T09:34:17.820Z,45.48
2022-08-03T09:36:50.580Z,46.21
2022-08-03T09:39:41.659Z,46.27
2022-08-03T09:42:15.020Z,45.76
2022-08-03T09:44:49.087Z,46.27
2022-08-03T09:47:36.690Z,45.92
2022-08-03T09:50:08.799Z,46.26
2022-08-03T09:52:52.148Z,44.95
2022-08-03T09:56:33.878Z,44.65
2022-08-03T09:58:10.670Z,45.09
2022-08-03T10:00:59.613Z,44.94
2022-08-03T10:03:31.215Z,44.84
2022-08-03T10:06:00.013Z,45.43
2022-08-03T10:08:27.001Z,45.03
2022-08-03T10:10:58.774Z,44.31
2022-08-03T10:13:25.639Z,43.82
2022-08-03T10:16:22.184Z,42.05
2022-08-03T10:18:39.160Z,41.50
2022-08-03T10:21:10.727Z,40.63
2022-08-03T10:23:40.974Z,41.23
2022-08-03T10:26:11.235Z,40.59
2022-08-03T10:28:47.414Z,41.96
2022-08-03T10:31:16.447Z,40.62
2022-08-03T10:33:51.491Z,39.27
2022-08-03T10:36:24.028Z,39.08
2022-08-03T10:38:56.605Z,40.00
2022-08-03T10:41:32.435Z,39.58
2022-08-03T10:44:05.376Z,39.74
2022-08-03T10:46:34.801Z,39.63
2022-08-03T10:49:03.082Z,39.43
2022-08-03T10:51:33.123Z,39.60
2022-08-03T10:54:01.987Z,39.75
2022-08-03T10:56:54.394Z,38.81
2022-08-03T10:59:47.476Z,39.63
2022-08-03T11:02:15.218Z,39.88
2022-08-03T11:04:42.864Z,40.31
2022-08-03T11:07:25.449Z,39.86
2022-08-03T11:09:54.492Z,38.38
2022-08-03T11:12:28.400Z,38.93
2022-08-03T11:15:01.984Z,39.79
2022-08-03T11:17:28.764Z,39.82
2022-08-03T11:19:57.736Z,38.78
2022-08-03T11:22:25.861Z,38.64
2022-08-03T11:24:54.459Z,37.85
2022-08-03T11:27:24.532Z,38.33
2022-08-03T11:30:27.573Z,37.50
2022-08-03T11:32:58.341Z,36.75
2022-08-03T11:35:26.829Z,36.70
2022-08-03T11:38:03.558Z,35.37
2022-08-03T11:40:45.428Z,35.02
2022-08-03T11:43:31.401Z,34.80
2022-08-03T11:45:58.493Z,35.22
2022-08-03T11:48:33.988Z,35.18
2022-08-03T11:51:05.741Z,35.78
2022-08-03T11:53:32.970Z,35.25
2022-08-03T11:56:12.617Z,35.38
2022-08-03T11:59:01.718Z,35.34
2022-08-03T12:01:41.766Z,34.22
2022-08-03T12:04:08.635Z,34.50
2022-08-03T12:06:54.800Z,35.51
2022-08-03T12:09:21.966Z,36.25
2022-08-03T12:11:59.623Z,36.28
2022-08-03T12:14:50.503Z,36.80
2022-08-03T12:17:17.489Z,36.95
2022-08-03T12:19:45.269Z,35.38
2022-08-03T12:22:11.910Z,36.11
2022-08-03T12:24:46.788Z,35.44
2022-08-03T12:27:23.379Z,35.39
2022-08-03T12:29:58.571Z,36.92
2022-08-03T12:32:26.495Z,35.85
2022-08-03T12:34:53.225Z,36.05
2022-08-03T12:37:29.818Z,35.72
2022-08-03T12:40:07.743Z,35.99
2022-08-03T12:42:38.890Z,34.65
2022-08-03T12:45:26.319Z,34.77
2022-08-03T12:47:58.782Z,35.23
2022-08-03T12:50:36.303Z,35.80
2022-08-03T12:53:05.665Z,34.01
2022-08-03T12:55:56.597Z,35.03
2022-08-03T12:58:35.029Z,35.53
2022-08-03T13:01:09.554Z,32.32
2022-08-03T13:03:49.579Z,33.21
2022-08-03T13:06:22.349Z,32.27
2022-08-03T13:08:49.627Z,29.73
2022-08-03T13:11:55.961Z,27.93
2022-08-03T13:14:19.479Z,32.25
2022-08-03T13:16:47.425Z,34.16
2022-08-03T13:19:15.561Z,34.42
2022-08-03T13:21:53.577Z,35.65
2022-08-03T13:24:31.422Z,35.71
2022-08-03T13:26:58.717Z,35.78
2022-08-03T13:29:25.318Z,35.85
2022-08-03T13:31:52.090Z,36.18
2022-08-03T13:34:23.597Z,36.13
2022-08-03T13:37:09.434Z,35.86
2022-08-03T13:39:57.562Z,35.42
2022-08-03T13:42:23.363Z,35.67
2022-08-03T13:44:50.138Z,36.31
2022-08-03T13:47:17.248Z,36.40
2022-08-03T13:49:54.267Z,35.41
2022-08-03T13:52:28.013Z,34.77
2022-08-03T13:54:54.807Z,35.28
2022-08-03T13:58:04.543Z,35.35
2022-08-03T14:00:09.109Z,35.24
2022-08-03T14:02:36.034Z,35.01
2022-08-03T14:05:02.878Z,35.18
2022-08-03T14:07:29.497Z,36.26
2022-08-03T14:09:56.919Z,35.93
2022-08-03T14:12:23.632Z,34.33
2022-08-03T14:14:50.630Z,34.26
2022-08-03T14:17:17.422Z,35.10
2022-08-03T14:19:53.046Z,33.70
2022-08-03T14:22:21.300Z,32.35
2022-08-03T14:24:49.329Z,31.07
2022-08-03T14:27:16.874Z,30.58
2022-08-03T14:29:43.766Z,30.31
2022-08-03T14:32:13.221Z,29.46
2022-08-03T14:34:40.829Z,29.57
2022-08-03T14:37:07.583Z,29.67
2022-08-03T14:42:21.632Z,29.42
2022-08-03T14:44:48.420Z,30.14
2022-08-03T14:47:15.268Z,30.42
2022-08-03T14:50:36.560Z,29.21
2022-08-03T14:52:29.480Z,28.28
2022-08-03T14:54:56.225Z,28.92
2022-08-03T14:57:22.927Z,29.61
2022-08-03T14:59:56.401Z,30.06
2022-08-03T15:02:25.267Z,30.92
2022-08-03T15:04:52.797Z,28.80
2022-08-03T15:07:20.860Z,28.91
2022-08-03T15:09:48.116Z,29.06
2022-08-03T15:12:14.750Z,31.98
2022-08-03T15:14:41.525Z,33.63
2022-08-03T15:17:08.279Z,33.73
2022-08-03T15:20:00.302Z,35.31
2022-08-03T15:22:24.953Z,35.97
2022-08-03T15:26:27.936Z,36.43
2022-08-03T15:28:03.759Z,36.24
2022-08-03T15:30:35.106Z,36.44
2022-08-03T15:33:02.289Z,36.43
2022-08-03T15:35:29.048Z,35.45
2022-08-03T15:37:55.692Z,33.38
2022-08-03T15:40:22.526Z,32.04
2022-08-03T15:42:49.171Z,33.18
2022-08-03T15:45:17.828Z,34.51
2022-08-03T15:47:47.278Z,34.76
2022-08-03T15:50:13.967Z,34.39
2022-08-03T15:52:40.629Z,35.32
2022-08-03T15:55:07.902Z,36.18
2022-08-03T15:57:34.523Z,35.53
2022-08-03T16:00:21.176Z,36.23
2022-08-03T16:03:00.792Z,36.08
2022-08-03T16:05:27.785Z,36.14
2022-08-03T16:08:03.147Z,35.77
2022-08-03T16:10:32.459Z,36.54
2022-08-03T16:13:00.160Z,35.71
2022-08-03T16:15:27.781Z,36.10
2022-08-03T16:17:54.747Z,36.19
2022-08-03T16:20:29.270Z,37.39
2022-08-03T16:23:00.493Z,37.63
2022-08-03T16:25:28.142Z,37.47
2022-08-03T16:28:00.352Z,37.65
2022-08-03T16:30:35.422Z,38.40
2022-08-03T16:33:02.151Z,38.82
2022-08-03T16:35:28.849Z,37.49
2022-08-03T16:37:56.452Z,36.16
2022-08-03T16:40:25.139Z,35.75
2022-08-03T16:42:51.798Z,36.17
2022-08-03T16:45:18.593Z,36.93
2022-08-03T16:47:45.296Z,36.94
2022-08-03T16:50:19.000Z,37.08
2022-08-03T16:52:47.685Z,36.05
2022-08-03T16:55:16.024Z,35.66
2022-08-03T16:58:03.166Z,35.84
2022-08-03T17:00:41.259Z,36.46
2022-08-03T17:03:12.791Z,37.37
2022-08-03T17:05:49.542Z,37.84
2022-08-03T17:08:26.489Z,38.73
2022-08-03T17:10:54.936Z,38.64
2022-08-03T17:13:22.889Z,38.93
2022-08-03T17:15:57.741Z,39.40
2022-08-03T17:18:29.730Z,39.67
2022-08-03T17:20:58.550Z,39.63
2022-08-03T17:23:48.902Z,39.83
2022-08-03T17:26:21.941Z,39.82
2022-08-03T17:28:57.636Z,40.23
2022-08-03T17:31:31.245Z,40.32
2022-08-03T17:34:02.103Z,41.07
2022-08-03T17:37:02.595Z,41.25
2022-08-03T17:39:27.080Z,40.95
2022-08-03T17:42:30.404Z,41.78
2022-08-03T17:44:55.339Z,42.35
2022-08-03T17:47:23.255Z,42.51
2022-08-03T17:49:56.989Z,42.70
2022-08-03T17:52:41.428Z,42.53
2022-08-03T17:55:56.495Z,44.37
2022-08-03T17:58:14.982Z,45.28
2022-08-03T18:01:04.214Z,46.72
2022-08-03T18:03:59.827Z,47.33
2022-08-03T18:06:31.190Z,47.26
2022-08-03T18:09:04.864Z,47.92
2022-08-03T18:11:35.560Z,47.87
2022-08-03T18:14:16.612Z,48.08
2022-08-03T18:16:57.557Z,48.04
2022-08-03T18:20:03.631Z,48.76
2022-08-03T18:22:21.391Z,49.71
2022-08-03T18:24:52.470Z,49.87
2022-08-03T18:27:21.322Z,50.12
2022-08-03T18:29:51.552Z,50.73
2022-08-03T18:32:18.394Z,51.17
2022-08-03T18:34:53.052Z,51.64
2022-08-03T18:37:25.240Z,52.47
2022-08-03T18:39:55.294Z,52.97
2022-08-03T18:42:25.858Z,53.74
2022-08-03T18:44:56.150Z,53.25
2022-08-03T18:47:52.091Z,53.60
2022-08-03T18:50:30.947Z,53.86
2022-08-03T18:53:15.799Z,54.13
2022-08-03T18:56:14.649Z,53.95
2022-08-03T18:59:05.208Z,54.74
2022-08-03T19:01:58.617Z,54.73
2022-08-03T19:04:35.908Z,54.89
2022-08-03T19:07:07.910Z,55.35
2022-08-03T19:10:11.281Z,55.44
2022-08-03T19:12:49.086Z,56.29
2022-08-03T19:15:36.167Z,56.33
2022-08-03T19:18:08.749Z,56.96
2022-08-03T19:20:37.653Z,57.81
2022-08-03T19:23:04.790Z,58.74
2022-08-03T19:25:38.421Z,59.66
2022-08-03T19:28:07.195Z,59.77
2022-08-03T19:30:40.322Z,60.04
2022-08-03T19:33:12.310Z,60.45
2022-08-03T19:35:55.202Z,60.85
2022-08-03T19:38:28.816Z,60.44
2022-08-03T19:41:03.253Z,60.71
2022-08-03T19:43:52.691Z,61.10
2022-08-03T19:46:21.680Z,61.38
2022-08-03T19:49:03.742Z,61.06
2022-08-03T19:52:02.512Z,61.22
2022-08-03T19:54:29.808Z,61.43
2022-08-03T19:57:02.609Z,61.82
2022-08-03T19:59:46.420Z,62.12
2022-08-03T20:02:25.684Z,62.94
2022-08-03T20:04:58.221Z,62.81
2022-08-03T20:07:28.554Z,62.81
2022-08-03T20:09:56.487Z,62.48
2022-08-03T20:12:27.888Z,62.69
2022-08-03T20:14:59.289Z,63.13
2022-08-03T20:17:54.882Z,63.69
2022-08-03T20:20:13.889Z,63.98
2022-08-03T20:22:46.118Z,63.55
2022-08-03T20:25:20.746Z,64.70
2022-08-03T20:28:06.939Z,64.45
2022-08-03T20:30:42.508Z,64.51
2022-08-03T20:33:10.489Z,64.74
2022-08-03T20:35:37.465Z,64.70
2022-08-03T20:38:04.243Z,65.32
2022-08-03T20:40:31.475Z,64.82
2022-08-03T20:42:59.815Z,65.38
2022-08-03T20:45:59.187Z,65.23
2022-08-03T20:48:18.322Z,66.18
2022-08-03T20:50:49.080Z,66.08
2022-08-03T20:53:31.171Z,66.00
2022-08-03T20:56:04.260Z,65.99
2022-08-03T20:58:31.171Z,66.29
2022-08-03T21:00:58.309Z,66.20
2022-08-03T21:03:24.954Z,66.07
2022-08-03T21:06:12.136Z,65.45
2022-08-03T21:08:49.620Z,65.46
2022-08-03T21:11:17.872Z,65.40
2022-08-03T21:13:56.152Z,65.00
2022-08-03T21:16:26.990Z,64.98
2022-08-03T21:18:57.793Z,65.33
2022-08-03T21:21:26.817Z,65.41
2022-08-03T21:23:54.984Z,65.47
2022-08-03T21:26:25.538Z,65.50
2022-08-03T21:28:54.402Z,65.58
2022-08-03T21:31:24.847Z,65.61
2022-08-03T21:33:57.213Z,65.61
2022-08-03T21:36:27.043Z,65.95
2022-08-03T21:38:57.253Z,65.97
2022-08-03T21:41:30.234Z,67.09
2022-08-03T21:43:57.377Z,66.98
2022-08-03T21:46:26.011Z,67.92
2022-08-03T21:50:04.135Z,68.88
2022-08-03T21:51:44.451Z,70.07
2022-08-03T21:54:11.776Z,71.34
2022-08-03T21:56:43.040Z,71.88
2022-08-03T21:59:17.212Z,72.39
2022-08-03T22:01:49.201Z,69.51
2022-08-03T22:04:37.260Z,69.22
2022-08-03T22:07:08.270Z,70.12
2022-08-03T22:09:36.531Z,69.93
2022-08-03T22:12:04.078Z,69.90
2022-08-03T22:14:32.745Z,69.63
2022-08-03T22:17:00.264Z,69.59
2022-08-03T22:19:26.972Z,69.29
2022-08-03T22:21:54.481Z,69.32
2022-08-03T22:24:23.906Z,70.24
2022-08-03T22:27:09.817Z,70.63
2022-08-03T22:29:36.852Z,70.30
2022-08-03T22:32:04.078Z,69.49
2022-08-03T22:34:31.074Z,70.47
2022-08-03T22:37:03.287Z,70.94
2022-08-03T22:39:30.425Z,70.84
2022-08-03T22:42:00.893Z,70.96
2022-08-03T22:44:28.241Z,71.12
2022-08-03T22:46:55.979Z,71.86
2022-08-03T22:49:22.839Z,72.47
2022-08-03T22:51:52.003Z,73.66
2022-08-03T22:54:20.244Z,74.01
2022-08-03T22:56:47.140Z,74.30
2022-08-03T22:59:41.379Z,73.55
2022-08-03T23:02:20.711Z,74.04
2022-08-03T23:04:55.110Z,73.82
2022-08-03T23:07:28.727Z,74.17
2022-08-03T23:09:57.863Z,74.35
2022-08-03T23:12:24.819Z,74.48
2022-08-03T23:14:57.594Z,74.26
2022-08-03T23:17:26.424Z,74.74
2022-08-03T23:19:53.936Z,75.20
2022-08-03T23:22:29.904Z,74.92
2022-08-03T23:24:59.147Z,75.57
2022-08-03T23:27:27.879Z,75.26
2022-08-03T23:29:58.443Z,74.74
2022-08-03T23:32:30.782Z,74.68
2022-08-03T23:35:18.887Z,74.66
2022-08-03T23:38:04.117Z,75.47
2022-08-03T23:40:34.126Z,76.01
2022-08-03T23:43:02.773Z,75.62
2022-08-03T23:45:34.629Z,76.48
2022-08-03T23:48:01.272Z,76.79
2022-08-03T23:50:40.357Z,76.73
2022-08-03T23:53:14.652Z,77.33
2022-08-03T23:55:53.375Z,78.54
2022-08-03T23:58:50.240Z,78.53
